Ackley, Iowa
Current Conditions -  °F | °C
As of 7:55 PM on Saturday 20 Dec 2014 (Local Time) from KIFA Reporting Station
Moderate Fog Moderate Fog  
Wind Chill: 24°   Ceiling: 200
Heat Index: 32°   Visibility: 0.25mi
Dew Point: 32°   Wind: 9mph
Humidity: 99%   Direction: 140°SE
Pressure: 30.12"   Gusts: NA
Location:  42.55°N, 93.05°W
Report Text: KIFA 210155Z AUTO 14008KT 1/4SM FG OVC002 00/00 A3012 RMK AO2 T00011001
Loading
Personal Weather Stations






























Interactive Weather Map New forecast layout! Learn more

10-Day Weather Forecast

Advertisements
Track Severe Weather on mobile